Time;durP1;ratioP1;P1;durP2;ratioP2;P2;SDS_P1;SDS_P2;PMS_P1;PMS_P2;Temp;Humidity;BMP_temperature;BMP_pressure;BME280_temperature;BME280_humidity;BME280_pressure;Samples;Min_cycle;Max_cycle;Signal;HPM_P1;HPM_P2
2021/08/10 06:14:25;;;;;;;7.90;3.70;;;;;;;30.23;42.96;101087.43;128643;1083;64123;-84
2021/08/10 06:16:51;;;;;;;7.83;3.33;;;;;;;30.21;42.78;101088.61;128226;1084;64286;-85
2021/08/10 06:19:17;;;;;;;6.10;3.50;;;;;;;30.22;43.15;101087.56;128716;1084;64133;-85
2021/08/10 06:21:45;;;;;;;8.40;3.47;;;;;;;30.22;43.12;101077.55;128470;1083;64137;-85
2021/08/10 06:24:12;;;;;;;8.75;3.40;;;;;;;30.23;43.14;101081.11;128340;1084;64257;-84
2021/08/10 06:26:38;;;;;;;8.78;3.35;;;;;;;30.23;43.16;101087.43;128579;1083;64201;-84
2021/08/10 06:29:05;;;;;;;6.83;3.47;;;;;;;30.23;43.05;101084.70;128228;1083;64584;-83
2021/08/10 06:31:32;;;;;;;7.90;3.70;;;;;;;30.22;43.24;101080.27;128261;1083;64137;-83
2021/08/10 06:33:59;;;;;;;7.20;3.53;;;;;;;30.21;43.18;101084.00;128211;1084;64366;-84
2021/08/10 06:36:25;;;;;;;7.73;3.60;;;;;;;30.22;42.78;101079.40;128769;1083;64132;-83
2021/08/10 06:38:51;;;;;;;7.27;3.63;;;;;;;30.22;43.24;101080.27;128722;1082;64208;-84
2021/08/10 06:41:18;;;;;;;6.10;3.50;;;;;;;30.21;43.13;101078.56;128609;1084;64089;-84
2021/08/10 06:43:45;;;;;;;7.90;4.20;;;;;;;30.21;42.91;101078.56;128383;1083;63914;-83
2021/08/10 06:46:11;;;;;;;9.17;3.60;;;;;;;30.19;43.07;101072.41;128408;1083;64120;-84
2021/08/10 06:48:38;;;;;;;5.90;3.47;;;;;;;30.18;43.07;101062.56;128400;1083;64165;-86
2021/08/10 06:51:04;;;;;;;6.73;3.63;;;;;;;30.18;43.18;101058.97;128240;1084;64202;-84
2021/08/10 06:53:31;;;;;;;9.33;3.70;;;;;;;30.17;42.75;101060.01;128253;1084;62998;-84
2021/08/10 06:55:57;;;;;;;6.77;3.60;;;;;;;30.16;42.68;101056.41;128651;1084;64152;-85
2021/08/10 06:58:24;;;;;;;8.27;3.93;;;;;;;30.13;42.81;101051.30;128683;1084;64147;-84
2021/08/10 07:00:50;;;;;;;8.03;3.63;;;;;;;30.13;42.95;101047.71;128293;1083;64345;-84
2021/08/10 07:03:17;;;;;;;7.40;3.97;;;;;;;30.12;42.96;101044.15;128280;1083;64128;-86
2021/08/10 07:05:44;;;;;;;6.03;3.70;;;;;;;30.12;42.78;101052.31;128472;1084;64247;-86
2021/08/10 07:08:11;;;;;;;8.07;3.47;;;;;;;30.13;42.95;101050.44;128876;1084;64230;-85
2021/08/10 07:10:37;;;;;;;6.00;3.43;;;;;;;30.13;42.99;101051.30;128344;1084;64176;-83
2021/08/10 07:13:04;;;;;;;7.97;3.47;;;;;;;30.13;43.05;101059.47;128396;1082;64233;-86
2021/08/10 07:15:30;;;;;;;7.37;3.70;;;;;;;30.13;42.46;101056.75;128783;1084;64729;-86
2021/08/10 07:17:56;;;;;;;6.07;3.33;;;;;;;30.14;42.74;101063.03;128440;1084;64137;-85
2021/08/10 07:20:23;;;;;;;5.60;3.50;;;;;;;30.15;42.93;101059.30;128398;1084;64093;-85
2021/08/10 07:22:49;;;;;;;8.67;3.43;;;;;;;30.15;43.03;101065.59;128888;1084;64104;-83
2021/08/10 07:25:15;;;;;;;4.70;3.40;;;;;;;30.16;43.33;101063.73;128892;1082;64131;-85
2021/08/10 07:27:41;;;;;;;7.13;3.80;;;;;;;30.15;43.00;101064.75;128799;1082;64275;-85
2021/08/10 07:30:08;;;;;;;6.50;3.30;;;;;;;30.15;43.02;101064.75;128769;1084;64166;-85
2021/08/10 07:32:34;;;;;;;6.70;3.40;;;;;;;30.15;43.04;101062.86;128844;1083;64122;-85
2021/08/10 07:35:03;;;;;;;6.47;3.30;;;;;;;30.14;43.14;101055.74;128314;1083;64231;-85
2021/08/10 07:37:29;;;;;;;6.53;3.20;;;;;;;30.15;42.79;101056.58;128242;1083;64177;-83
2021/08/10 07:39:56;;;;;;;7.20;3.67;;;;;;;30.13;42.63;101056.75;128162;1084;64154;-84
2021/08/10 07:42:22;;;;;;;8.33;3.80;;;;;;;30.15;42.92;101059.30;128579;1084;64135;-85
2021/08/10 07:44:49;;;;;;;7.57;3.40;;;;;;;30.13;42.80;101053.16;128305;1084;64131;-85
2021/08/10 07:47:15;;;;;;;5.37;3.30;;;;;;;30.15;43.03;101053.86;128292;1084;64131;-85
2021/08/10 07:49:41;;;;;;;6.33;3.20;;;;;;;30.15;42.60;101054.70;128772;1083;64147;-85
2021/08/10 07:52:07;;;;;;;6.63;3.50;;;;;;;30.16;42.95;101050.13;128821;1084;64399;-85
2021/08/10 07:54:35;;;;;;;6.57;3.57;;;;;;;30.16;42.85;101048.24;128444;1084;64182;-85
2021/08/10 07:57:04;;;;;;;7.47;3.67;;;;;;;30.17;42.55;101041.79;128757;1084;64236;-85
2021/08/10 07:59:30;;;;;;;6.40;3.40;;;;;;;30.18;43.11;101039.91;128291;1084;64089;-84
2021/08/10 08:01:57;;;;;;;7.70;3.80;;;;;;;30.18;42.41;101038.05;128376;1084;64243;-83
2021/08/10 08:04:23;;;;;;;8.30;3.90;;;;;;;30.19;42.69;101039.73;128309;1082;64141;-85
2021/08/10 08:06:50;;;;;;;10.37;4.57;;;;;;;30.20;42.86;101027.00;128716;1082;64214;-84
2021/08/10 08:09:17;;;;;;;11.33;4.70;;;;;;;30.20;43.06;101037.89;128714;1082;64153;-84
2021/08/10 08:11:43;;;;;;;11.77;4.90;;;;;;;30.20;42.84;101035.16;128706;1082;64221;-84
2021/08/10 08:14:09;;;;;;;12.50;4.70;;;;;;;30.20;42.91;101033.28;128378;1082;64636;-86
2021/08/10 08:16:37;;;;;;;11.50;5.37;;;;;;;30.20;42.95;101033.28;128773;1084;64099;-86
2021/08/10 08:19:03;;;;;;;10.10;4.93;;;;;;;30.21;42.52;101045.05;128282;1082;64093;-83
2021/08/10 08:21:29;;;;;;;11.20;4.97;;;;;;;30.20;42.92;101035.16;128244;1083;64221;-83
2021/08/10 08:23:55;;;;;;;12.80;4.97;;;;;;;30.21;42.68;101045.88;128588;1084;64131;-84
2021/08/10 08:26:22;;;;;;;11.83;4.80;;;;;;;30.21;43.00;101043.16;128675;1082;65976;-84
2021/08/10 08:28:49;;;;;;;14.73;5.70;;;;;;;30.22;42.43;101044.88;128789;1084;64165;-85
2021/08/10 08:31:15;;;;;;;15.27;5.73;;;;;;;30.23;42.56;101041.14;128571;1084;64739;-84
2021/08/10 08:33:41;;;;;;;15.03;5.77;;;;;;;30.24;42.90;101036.53;128202;1082;64195;-84
2021/08/10 08:36:08;;;;;;;18.73;6.00;;;;;;;30.24;42.70;101026.48;128601;1084;64124;-84
2021/08/10 08:38:34;;;;;;;15.20;5.80;;;;;;;30.25;42.76;101019.19;128606;1084;64160;-84
2021/08/10 08:41:00;;;;;;;14.13;5.67;;;;;;;30.25;42.60;101022.75;128287;1084;64173;-84
2021/08/10 08:43:27;;;;;;;18.47;6.27;;;;;;;30.26;42.94;101016.30;128661;1084;64208;-85
2021/08/10 08:45:53;;;;;;;13.83;5.57;;;;;;;30.26;42.44;101019.02;128316;1084;64153;-84
2021/08/10 08:48:20;;;;;;;12.60;5.63;;;;;;;30.27;42.94;101022.58;128563;1084;64307;-84
2021/08/10 08:50:49;;;;;;;13.80;5.70;;;;;;;30.29;42.89;101022.41;128666;1084;64281;-84
2021/08/10 08:53:16;;;;;;;17.37;6.23;;;;;;;30.29;42.65;101015.12;128947;1083;64176;-85
2021/08/10 08:55:46;;;;;;;17.40;5.90;;;;;;;30.30;42.40;101010.51;128760;1082;64173;-85
2021/08/10 08:58:13;;;;;;;16.27;5.93;;;;;;;30.30;42.57;101003.21;128492;1084;64230;-85
2021/08/10 09:00:39;;;;;;;15.33;6.10;;;;;;;30.31;42.42;101012.22;128447;1083;64134;-84
2021/08/10 09:03:05;;;;;;;13.37;5.87;;;;;;;30.32;42.87;101006.60;128897;1084;64071;-85
2021/08/10 09:05:34;;;;;;;15.27;5.73;;;;;;;30.33;42.46;101016.48;128294;1084;64370;-84
2021/08/10 09:08:24;;;;;;;13.78;5.80;;;;;;;30.34;42.38;101003.70;128419;1083;64603;-85
2021/08/10 09:10:58;;;;;;;14.00;5.93;;;;;;;30.34;42.44;101006.44;128319;1084;64172;-84
2021/08/10 09:13:25;;;;;;;14.17;6.17;;;;;;;30.35;42.46;101003.54;128501;1084;64138;-84
2021/08/10 09:15:52;;;;;;;14.43;5.67;;;;;;;30.35;42.83;101003.54;128215;1082;64119;-84
2021/08/10 09:18:22;;;;;;;12.30;5.80;;;;;;;30.36;42.85;101001.69;128727;1084;64141;-85
2021/08/10 09:21:19;;;;;;;14.77;6.00;;;;;;;30.36;42.75;101001.69;128707;1081;64124;-85
2021/08/10 09:23:53;;;;;;;15.07;6.20;;;;;;;30.36;42.62;100999.80;128114;1084;64095;-84
2021/08/10 09:26:24;;;;;;;13.00;6.00;;;;;;;30.36;42.65;100993.52;128192;1086;64176;-85
2021/08/10 09:28:57;;;;;;;13.93;5.73;;;;;;;30.36;42.28;100993.52;128148;1086;64135;-84
2021/08/10 09:31:31;;;;;;;14.73;5.90;;;;;;;30.35;42.43;100987.20;128258;1086;64211;-85
2021/08/10 09:34:00;;;;;;;11.67;5.70;;;;;;;30.36;42.46;100985.34;128093;1084;64169;-84
2021/08/10 09:36:27;;;;;;;10.68;6.20;;;;;;;30.35;42.29;100979.03;128219;1086;63992;-85
2021/08/10 09:38:53;;;;;;;12.87;5.80;;;;;;;30.35;42.66;100975.47;128212;1086;64233;-85
2021/08/10 09:41:20;;;;;;;15.07;5.87;;;;;;;30.35;42.70;100975.47;128120;1084;64099;-84
2021/08/10 09:43:48;;;;;;;13.27;5.80;;;;;;;30.35;42.70;100970.86;128143;1084;64568;-84
2021/08/10 09:46:15;;;;;;;;;;;;;;;30.35;42.68;100965.41;128210;1087;64163;-83
2021/08/10 09:48:50;;;;;;;11.50;5.60;;;;;;;30.33;42.61;100967.47;128197;1084;62608;-82
2021/08/10 09:51:22;;;;;;;12.40;6.03;;;;;;;30.34;42.50;100963.73;128184;1085;64278;-84
2021/08/10 09:54:02;;;;;;;11.40;5.50;;;;;;;30.34;42.19;100968.30;128182;1086;64152;-83
2021/08/10 09:56:53;;;;;;;13.33;6.10;;;;;;;30.33;42.09;100966.59;128160;1087;64137;-84
2021/08/10 09:59:24;;;;;;;10.67;5.50;;;;;;;30.32;42.10;100957.59;128151;1087;64150;-84
2021/08/10 10:01:55;;;;;;;13.67;6.03;;;;;;;30.33;42.19;100959.30;128286;1082;65351;-84
2021/08/10 10:04:29;;;;;;;15.57;6.17;;;;;;;30.33;42.47;100959.30;128687;1083;64200;-84
2021/08/10 10:07:08;;;;;;;11.80;5.53;;;;;;;30.33;42.14;100958.42;128396;1084;64089;-84
2021/08/10 10:09:34;;;;;;;10.13;5.37;;;;;;;30.33;42.09;100955.70;128717;1082;64144;-84
2021/08/10 10:12:01;;;;;;;12.47;5.40;;;;;;;30.33;42.34;100959.30;128713;1082;64282;-85
2021/08/10 10:14:28;;;;;;;10.50;5.48;;;;;;;30.34;42.09;100951.97;128454;1084;64122;-84
2021/08/10 10:16:54;;;;;;;14.23;5.50;;;;;;;30.32;42.48;100954.86;128336;1084;64198;-84
2021/08/10 10:19:21;;;;;;;12.80;5.60;;;;;;;30.33;42.44;100955.70;128205;1084;62894;-84
2021/08/10 10:21:50;;;;;;;12.13;5.37;;;;;;;30.33;42.09;100945.68;128187;1083;64445;-84
2021/08/10 10:24:17;;;;;;;12.63;5.55;;;;;;;30.32;42.46;100949.42;128247;1083;63988;-84
2021/08/10 10:26:45;;;;;;;8.87;5.30;;;;;;;30.32;42.41;100943.97;128537;1084;63939;-84
2021/08/10 10:29:13;;;;;;;13.75;5.58;;;;;;;30.33;42.05;100939.36;128547;1084;64312;-84
2021/08/10 10:31:40;;;;;;;11.20;5.40;;;;;;;30.33;41.99;100933.92;128658;1084;64099;-84
2021/08/10 10:34:06;;;;;;;11.03;5.23;;;;;;;30.33;42.61;100939.36;128598;1083;64169;-84
2021/08/10 10:36:34;;;;;;;12.33;5.13;;;;;;;30.33;42.00;100934.79;128573;1084;64131;-84
2021/08/10 10:39:01;;;;;;;12.33;5.60;;;;;;;30.34;42.39;100936.50;128228;1083;64147;-84
2021/08/10 10:41:31;;;;;;;10.67;5.60;;;;;;;30.34;42.42;100924.73;128634;1084;64048;-84
2021/08/10 10:43:57;;;;;;;9.10;5.03;;;;;;;30.34;42.43;100927.45;128182;1084;64192;-85
2021/08/10 10:46:40;;;;;;;9.43;5.00;;;;;;;30.33;42.36;100929.34;128637;1082;64128;-85
2021/08/10 10:49:09;;;;;;;11.53;5.13;;;;;;;30.33;42.33;100923.02;128647;1084;62799;-84
2021/08/10 10:51:39;;;;;;;11.87;5.43;;;;;;;30.33;41.93;100918.45;128260;1082;64263;-84
2021/08/10 10:54:25;;;;;;;11.00;5.03;;;;;;;30.34;41.83;100916.56;128148;1082;64208;-84
2021/08/10 10:57:00;;;;;;;12.27;5.20;;;;;;;30.34;42.44;100911.12;128701;1084;64012;-84
2021/08/10 10:59:30;;;;;;;9.37;4.83;;;;;;;30.34;42.07;100913.84;128677;1084;64198;-84
2021/08/10 11:02:17;;;;;;;9.70;5.10;;;;;;;30.34;41.87;100913.84;128723;1084;64139;-85
2021/08/10 11:05:22;;;;;;;10.17;5.10;;;;;;;30.34;42.27;100919.29;128719;1084;64121;-85
2021/08/10 11:07:53;;;;;;;9.93;5.00;;;;;;;30.34;42.21;100914.72;128530;1084;64121;-85
2021/08/10 11:10:39;;;;;;;9.83;4.97;;;;;;;30.34;41.92;100914.72;128238;1083;64201;-85
2021/08/10 11:13:35;;;;;;;9.53;5.20;;;;;;;30.33;41.89;100920.30;128552;1082;64301;-83
2021/08/10 11:16:02;;;;;;;10.37;4.90;;;;;;;30.35;41.89;100907.39;128574;1080;64259;-85
2021/08/10 11:18:28;;;;;;;9.30;5.10;;;;;;;30.33;42.47;100907.56;128240;1084;64097;-85
2021/08/10 11:21:00;;;;;;;9.63;4.73;;;;;;;30.34;42.21;100905.67;128635;1081;64281;-84
2021/08/10 11:23:31;;;;;;;7.43;5.00;;;;;;;30.33;42.38;100899.39;128700;1082;64073;-84
2021/08/10 11:26:07;;;;;;;11.83;4.90;;;;;;;30.35;42.13;100905.50;128340;1083;64128;-84
2021/08/10 11:28:44;;;;;;;9.97;5.00;;;;;;;30.34;42.46;100895.66;128702;1083;64134;-85
2021/08/10 11:31:11;;;;;;;10.73;5.07;;;;;;;30.34;42.48;100884.77;128681;1082;64594;-84
2021/08/10 11:33:42;;;;;;;10.20;4.90;;;;;;;30.35;42.51;100885.59;128645;1083;64438;-84
2021/08/10 11:36:14;;;;;;;13.10;5.43;;;;;;;30.35;42.36;100885.59;128354;1083;64289;-84
2021/08/10 11:38:51;;;;;;;8.53;4.40;;;;;;;30.34;42.12;100879.31;128799;1082;64157;-84
2021/08/10 11:41:21;;;;;;;8.10;4.60;;;;;;;30.34;42.41;100870.27;128323;1084;64243;-85
2021/08/10 11:43:52;;;;;;;8.03;4.60;;;;;;;30.34;42.09;100870.27;128664;1084;64236;-84
2021/08/10 11:46:20;;;;;;;10.70;4.60;;;;;;;30.34;42.31;100870.27;128733;1084;64154;-84
2021/08/10 11:48:47;;;;;;;;;;;;;;;30.33;42.00;100863.12;128740;1082;64250;-85
2021/08/10 11:51:23;;;;;;;8.93;4.63;;;;;;;30.32;42.32;100865.00;128282;1082;64128;-86
2021/08/10 11:53:50;;;;;;;9.50;4.70;;;;;;;30.31;42.03;100860.56;128718;1084;64125;-85
2021/08/10 11:56:25;;;;;;;10.07;4.50;;;;;;;30.32;42.18;100855.99;128330;1084;64133;-85
2021/08/10 11:58:52;;;;;;;10.20;5.10;;;;;;;30.32;42.38;100847.83;128325;1083;64751;-85
2021/08/10 12:01:18;;;;;;;8.60;4.67;;;;;;;30.32;41.98;100842.38;128298;1084;64220;-85
2021/08/10 12:03:44;;;;;;;8.87;4.77;;;;;;;30.32;42.04;100845.10;128295;1082;64290;-83
2021/08/10 12:06:11;;;;;;;8.77;4.57;;;;;;;30.32;42.23;100842.38;128707;1084;64325;-83
2021/08/10 12:08:40;;;;;;;8.63;4.70;;;;;;;30.33;42.43;100838.61;128221;1082;64146;-84
2021/08/10 12:11:06;;;;;;;8.63;4.60;;;;;;;30.32;42.22;100828.77;128234;1083;64150;-84
2021/08/10 12:13:32;;;;;;;9.20;4.40;;;;;;;30.32;42.34;100824.16;128195;1083;64381;-84
2021/08/10 12:15:58;;;;;;;10.97;4.87;;;;;;;30.33;42.17;100827.72;128318;1084;64191;-84
2021/08/10 12:18:26;;;;;;;9.37;4.87;;;;;;;30.33;41.75;100822.27;128236;1082;64124;-84
2021/08/10 12:21:04;;;;;;;7.17;4.70;;;;;;;30.32;42.24;100818.70;128320;1084;64089;-84
2021/08/10 12:23:42;;;;;;;8.53;4.80;;;;;;;30.33;41.82;100814.10;128684;1083;64137;-84
2021/08/10 12:26:19;;;;;;;7.57;4.43;;;;;;;30.33;41.79;100812.25;128267;1082;64176;-84
2021/08/10 12:28:56;;;;;;;7.17;4.33;;;;;;;30.33;41.77;100812.25;128334;1082;64415;-85
2021/08/10 12:31:23;;;;;;;7.70;4.50;;;;;;;30.34;41.77;100803.06;128610;1084;64265;-84
2021/08/10 12:33:50;;;;;;;7.40;4.33;;;;;;;30.35;42.13;100803.91;128254;1084;64239;-84
2021/08/10 12:36:17;;;;;;;8.17;4.40;;;;;;;30.35;42.08;100801.18;128775;1082;64121;-84
2021/08/10 12:38:44;;;;;;;7.37;4.37;;;;;;;30.35;41.48;100804.74;128282;1083;64361;-85
2021/08/10 12:41:11;;;;;;;10.10;4.83;;;;;;;30.35;42.19;100793.85;128323;1084;64552;-85
2021/08/10 12:43:38;;;;;;;7.30;4.77;;;;;;;30.36;41.49;100797.44;128229;1084;64125;-85
2021/08/10 12:46:30;;;;;;;7.73;4.50;;;;;;;30.36;41.50;100792.00;128264;1084;64161;-84
2021/08/10 12:49:05;;;;;;;8.57;4.67;;;;;;;30.36;41.94;100783.83;128541;1084;64125;-86
2021/08/10 12:51:55;;;;;;;7.57;4.50;;;;;;;30.35;41.82;100780.23;128515;1084;64671;-86
2021/08/10 12:54:22;;;;;;;7.17;4.33;;;;;;;30.35;41.64;100779.40;128877;1084;64217;-85
2021/08/10 12:56:48;;;;;;;7.60;4.40;;;;;;;30.35;41.58;100772.06;128925;1084;64227;-86
2021/08/10 12:59:15;;;;;;;7.50;4.20;;;;;;;30.36;41.91;100772.94;128515;1084;64275;-85
2021/08/10 13:01:42;;;;;;;6.70;3.83;;;;;;;30.35;41.83;100766.62;128892;1084;64098;-85
2021/08/10 13:04:10;;;;;;;8.93;4.70;;;;;;;30.35;41.62;100761.17;128528;1084;64157;-86
2021/08/10 13:06:37;;;;;;;9.37;4.47;;;;;;;30.35;41.29;100766.62;128553;1084;64289;-86
2021/08/10 13:09:06;;;;;;;7.47;4.30;;;;;;;30.35;41.23;100771.23;128530;1083;64202;-85
2021/08/10 13:11:33;;;;;;;7.90;4.20;;;;;;;30.36;41.62;100770.21;128917;1084;63932;-84
2021/08/10 13:14:09;;;;;;;8.10;4.40;;;;;;;30.35;41.15;100769.34;128548;1082;64101;-85
2021/08/10 13:16:41;;;;;;;8.03;4.47;;;;;;;30.35;41.71;100761.17;128620;1084;64173;-84
2021/08/10 13:19:13;;;;;;;7.87;4.40;;;;;;;30.36;41.66;100765.60;128682;1083;64064;-84
2021/08/10 13:21:47;;;;;;;9.70;4.80;;;;;;;30.36;41.18;100757.44;129055;1082;64092;-84
2021/08/10 13:24:13;;;;;;;8.57;4.53;;;;;;;30.37;41.64;100761.86;129212;1084;63340;-84
2021/08/10 13:26:44;;;;;;;7.47;4.63;;;;;;;30.38;41.51;100762.70;129084;1083;64147;-84
2021/08/10 13:29:11;;;;;;;8.03;4.37;;;;;;;30.38;41.53;100758.13;128918;1084;64176;-85
2021/08/10 13:31:54;;;;;;;8.97;4.70;;;;;;;30.39;41.61;100765.25;128914;1083;64230;-85
2021/08/10 13:34:40;;;;;;;7.23;4.07;;;;;;;30.40;41.18;100752.50;128925;1082;64095;-85
2021/08/10 13:37:06;;;;;;;6.43;3.70;;;;;;;30.39;41.56;100753.52;128762;1082;64332;-85
2021/08/10 13:39:32;;;;;;;8.87;4.60;;;;;;;30.40;41.12;100756.06;128495;1084;64361;-85
2021/08/10 13:41:59;;;;;;;7.20;3.90;;;;;;;30.40;41.69;100750.62;128437;1082;64131;-84
2021/08/10 13:44:26;;;;;;;6.37;4.20;;;;;;;30.40;41.22;100742.45;128682;1084;64134;-86
2021/08/10 13:46:52;;;;;;;7.80;4.30;;;;;;;30.40;41.06;100742.45;128509;1084;64186;-86
2021/08/10 13:49:18;;;;;;;7.40;4.03;;;;;;;30.41;41.40;100738.70;128879;1084;64223;-85
2021/08/10 13:51:47;;;;;;;7.07;4.10;;;;;;;30.41;41.07;100749.60;128474;1083;64938;-85
2021/08/10 13:54:14;;;;;;;7.47;4.10;;;;;;;30.41;41.26;100743.31;128871;1084;64204;-86
2021/08/10 13:56:40;;;;;;;9.40;4.80;;;;;;;30.41;41.07;100740.59;128866;1082;64133;-85
2021/08/10 13:59:08;;;;;;;8.53;4.33;;;;;;;30.40;40.97;100738.88;128550;1084;64093;-84
2021/08/10 14:04:06;;;;;;;6.30;4.10;;;;;;;30.40;41.10;100728.83;128913;1084;64208;-85
2021/08/10 14:06:33;;;;;;;7.77;4.50;;;;;;;30.40;40.84;100730.72;128901;1083;64193;-85
2021/08/10 14:08:59;;;;;;;6.10;4.00;;;;;;;30.40;41.27;100720.66;128455;1084;64133;-86
2021/08/10 14:11:29;;;;;;;7.03;3.97;;;;;;;30.40;40.88;100715.21;128906;1084;64128;-86
2021/08/10 14:13:58;;;;;;;7.80;4.40;;;;;;;30.40;40.76;100706.20;128498;1084;64128;-86
2021/08/10 14:16:32;;;;;;;7.20;4.30;;;;;;;30.40;41.25;100712.48;128697;1083;64381;-85
2021/08/10 14:19:08;;;;;;;6.93;3.97;;;;;;;30.39;40.83;100710.78;128865;1084;62118;-86
2021/08/10 14:21:35;;;;;;;8.23;4.30;;;;;;;30.39;41.09;100699.89;128460;1084;64192;-86
2021/08/10 14:24:01;;;;;;;6.13;4.00;;;;;;;30.40;41.13;100696.15;128892;1084;64968;-85
2021/08/10 14:26:30;;;;;;;7.30;4.07;;;;;;;30.40;40.73;100698.03;128528;1084;64131;-85
2021/08/10 14:28:56;;;;;;;7.03;4.28;;;;;;;30.40;40.69;100698.03;128467;1084;64131;-85
2021/08/10 14:31:23;;;;;;;6.93;3.93;;;;;;;30.40;40.93;100684.42;128509;1084;64259;-86
2021/08/10 14:33:54;;;;;;;7.23;4.17;;;;;;;30.39;40.73;100691.72;128467;1083;64278;-86
2021/08/10 14:36:20;;;;;;;6.50;4.03;;;;;;;30.39;41.13;100696.33;128923;1082;64202;-86
2021/08/10 14:38:47;;;;;;;6.20;3.80;;;;;;;30.38;40.63;100700.94;128920;1084;64199;-85
2021/08/10 14:41:13;;;;;;;7.30;4.27;;;;;;;30.38;41.19;100708.23;128500;1084;64062;-86
2021/08/10 14:43:42;;;;;;;6.80;3.70;;;;;;;30.38;40.87;100708.23;128483;1084;64128;-86
2021/08/10 14:46:09;;;;;;;6.73;4.10;;;;;;;30.37;41.17;100709.28;128520;1083;64251;-86
2021/08/10 14:48:37;;;;;;;8.50;4.07;;;;;;;30.36;41.08;100700.25;128507;1084;64105;-85
2021/08/10 14:51:03;;;;;;;6.43;3.80;;;;;;;30.36;41.13;100705.69;128489;1083;64147;-85
2021/08/10 14:53:29;;;;;;;6.73;4.10;;;;;;;30.36;40.69;100710.30;128361;1084;64948;-84
2021/08/10 14:55:57;;;;;;;7.23;3.90;;;;;;;30.35;40.88;100703.98;128860;1084;64127;-85
2021/08/10 14:58:23;;;;;;;5.33;3.90;;;;;;;30.35;41.34;100698.54;128482;1084;64244;-85
2021/08/10 15:00:50;;;;;;;6.87;3.87;;;;;;;30.34;40.70;100709.61;128466;1084;64229;-85
2021/08/10 15:03:19;;;;;;;6.73;4.00;;;;;;;30.34;41.05;100721.38;128501;1084;64278;-86
2021/08/10 15:05:46;;;;;;;6.87;4.40;;;;;;;30.34;41.05;100728.67;128402;1084;63987;-85
2021/08/10 15:08:13;;;;;;;5.87;3.90;;;;;;;30.34;41.21;100725.95;128423;1083;64096;-85
2021/08/10 15:10:39;;;;;;;6.57;4.07;;;;;;;30.33;40.70;100727.83;128649;1084;64153;-85
2021/08/10 15:13:06;;;;;;;7.53;4.30;;;;;;;30.35;41.13;100727.66;128729;1083;64295;-85
2021/08/10 15:15:33;;;;;;;6.23;3.70;;;;;;;30.34;40.58;100726.82;128765;1084;64305;-86
2021/08/10 15:18:00;;;;;;;7.63;4.10;;;;;;;30.34;41.19;100720.50;128756;1082;64197;-85
2021/08/10 15:20:26;;;;;;;5.80;3.70;;;;;;;30.34;40.59;100724.09;128888;1084;64137;-86
2021/08/10 15:22:54;;;;;;;6.77;3.90;;;;;;;30.34;40.94;100729.55;128462;1084;64166;-86
2021/08/10 15:25:25;;;;;;;;;;;;;;;30.33;41.05;100733.28;128662;1084;64224;-86
2021/08/10 15:27:51;;;;;;;7.93;4.27;;;;;;;30.33;40.60;100732.41;128802;1082;64241;-85
2021/08/10 15:30:18;;;;;;;6.33;3.90;;;;;;;30.34;40.54;100728.67;128337;1084;64128;-85
2021/08/10 15:32:45;;;;;;;6.03;4.00;;;;;;;30.33;40.89;100729.69;128733;1084;64166;-85
2021/08/10 15:35:12;;;;;;;7.23;3.97;;;;;;;30.32;41.01;100728.84;128764;1083;64216;-85
2021/08/10 15:37:38;;;;;;;7.47;4.00;;;;;;;30.32;41.04;100731.58;128803;1084;64173;-85
2021/08/10 15:40:05;;;;;;;5.57;4.03;;;;;;;30.34;41.06;100739.56;128797;1084;64150;-85
2021/08/10 15:42:32;;;;;;;5.83;4.00;;;;;;;30.33;40.64;100736.00;128804;1084;64166;-85
2021/08/10 15:44:58;;;;;;;6.60;4.05;;;;;;;30.33;40.92;100746.03;128907;1084;64173;-85
2021/08/10 15:47:25;;;;;;;6.47;3.80;;;;;;;30.33;40.91;100738.73;128478;1082;64863;-86
2021/08/10 15:49:53;;;;;;;7.23;3.87;;;;;;;30.32;41.01;100731.58;128910;1084;64173;-85
2021/08/10 15:52:20;;;;;;;6.33;4.23;;;;;;;30.33;41.08;100733.28;128504;1084;64166;-86
2021/08/10 15:54:46;;;;;;;6.53;3.87;;;;;;;30.32;41.01;100731.58;128897;1084;64143;-85
2021/08/10 15:57:13;;;;;;;5.43;3.93;;;;;;;30.32;40.69;100728.02;128484;1082;64128;-86
2021/08/10 15:59:39;;;;;;;6.43;3.87;;;;;;;30.32;40.49;100741.63;128814;1084;64195;-86
2021/08/10 16:02:05;;;;;;;5.80;3.90;;;;;;;30.32;40.84;100736.19;128496;1084;64106;-86
2021/08/10 16:04:31;;;;;;;6.73;4.27;;;;;;;30.32;40.69;100744.35;128922;1084;64134;-86
2021/08/10 16:07:00;;;;;;;6.73;3.93;;;;;;;30.31;41.05;100737.20;128920;1084;64317;-86
2021/08/10 16:09:27;;;;;;;5.83;3.80;;;;;;;30.31;41.05;100739.92;128794;1084;64546;-84
2021/08/10 16:11:58;;;;;;;6.17;3.87;;;;;;;30.30;40.72;100741.81;128385;1084;64271;-84
2021/08/10 16:14:27;;;;;;;5.77;3.80;;;;;;;30.31;40.61;100729.03;128394;1082;64143;-84
2021/08/10 16:16:54;;;;;;;7.40;4.50;;;;;;;30.30;41.10;100722.75;128801;1083;66010;-85
2021/08/10 16:19:20;;;;;;;6.50;4.27;;;;;;;30.31;40.67;100710.80;128427;1083;64151;-84
2021/08/10 16:21:47;;;;;;;5.83;3.93;;;;;;;30.30;40.97;100692.80;128353;1084;64156;-84
2021/08/10 16:24:13;;;;;;;6.53;3.70;;;;;;;30.31;41.02;100685.46;128829;1084;64220;-86
2021/08/10 16:26:39;;;;;;;5.70;3.80;;;;;;;30.30;40.75;100681.91;128488;1083;64230;-86
2021/08/10 16:29:07;;;;;;;7.47;3.93;;;;;;;30.30;41.21;100684.63;128878;1082;64173;-86
2021/08/10 16:31:33;;;;;;;8.33;4.30;;;;;;;30.30;40.97;100694.64;128438;1083;65084;-85
2021/08/10 16:34:00;;;;;;;5.65;3.78;;;;;;;30.30;40.70;100695.52;128908;1083;64090;-86
2021/08/10 16:36:27;;;;;;;7.43;3.90;;;;;;;30.29;41.10;100701.98;128514;1083;64154;-87
2021/08/10 16:38:53;;;;;;;6.03;3.80;;;;;;;30.29;40.81;100721.03;128917;1082;64137;-86
2021/08/10 16:41:20;;;;;;;6.07;3.70;;;;;;;30.29;40.83;100721.03;128542;1084;64119;-86
2021/08/10 16:43:46;;;;;;;5.43;3.73;;;;;;;30.29;41.13;100737.38;128912;1083;64127;-86
2021/08/10 16:46:15;;;;;;;6.07;3.90;;;;;;;30.29;40.91;100747.39;128453;1084;64278;-86
2021/08/10 16:48:44;;;;;;;5.50;3.90;;;;;;;30.29;41.45;100755.56;128924;1084;64808;-85
2021/08/10 16:51:10;;;;;;;5.87;4.00;;;;;;;30.29;41.24;100769.18;128905;1084;64127;-85
2021/08/10 16:53:37;;;;;;;5.93;3.80;;;;;;;30.29;40.98;100764.61;128482;1082;64278;-85
2021/08/10 16:56:03;;;;;;;6.20;4.10;;;;;;;30.28;41.10;100760.17;128860;1083;64141;-85
2021/08/10 16:58:32;;;;;;;5.60;3.70;;;;;;;30.29;41.41;100761.01;128453;1084;64115;-86
2021/08/10 17:00:59;;;;;;;5.57;3.77;;;;;;;30.29;41.41;100752.84;128865;1084;64365;-86
2021/08/10 17:03:25;;;;;;;5.60;3.70;;;;;;;30.28;41.26;100757.45;128894;1084;64197;-85
2021/08/10 17:05:52;;;;;;;7.30;4.00;;;;;;;30.28;41.55;100754.73;128513;1084;64189;-86
2021/08/10 17:08:18;;;;;;;5.07;3.50;;;;;;;30.28;41.44;100753.89;128900;1083;64275;-86
2021/08/10 17:10:46;;;;;;;5.37;3.77;;;;;;;30.29;41.51;100759.16;128470;1084;64128;-85
2021/08/10 17:13:12;;;;;;;5.45;3.70;;;;;;;30.28;41.51;100754.73;128489;1084;64104;-86
2021/08/10 17:15:41;;;;;;;7.53;4.17;;;;;;;30.28;41.56;100756.61;128479;1084;64307;-85
2021/08/10 17:18:08;;;;;;;5.63;3.70;;;;;;;30.28;41.67;100748.44;128530;1084;64224;-86
2021/08/10 17:20:34;;;;;;;6.07;4.00;;;;;;;30.28;41.22;100756.61;128729;1084;64173;-86
2021/08/10 17:23:00;;;;;;;7.27;3.73;;;;;;;30.28;41.60;100753.89;128518;1084;64393;-86
2021/08/10 17:25:26;;;;;;;5.67;3.67;;;;;;;30.28;41.49;100748.44;128485;1084;64095;-86
2021/08/10 17:27:53;;;;;;;4.73;3.67;;;;;;;30.28;41.76;100753.89;128881;1084;64086;-85
2021/08/10 17:30:19;;;;;;;4.75;3.40;;;;;;;30.27;41.61;100755.74;128504;1083;64178;-86
2021/08/10 17:32:49;;;;;;;6.47;3.90;;;;;;;30.26;41.67;100749.45;128518;1084;64212;-86
2021/08/10 17:35:28;;;;;;;6.73;4.00;;;;;;;30.27;41.47;100755.74;128549;1083;64173;-84
2021/08/10 17:38:01;;;;;;;7.33;4.07;;;;;;;30.27;41.35;100753.02;128996;1082;64176;-84
2021/08/10 17:40:28;;;;;;;5.90;3.73;;;;;;;30.26;41.85;100754.91;128590;1084;64128;-84